createdAt,value
2018-01-24T00:01:55.368Z,2.23
2018-01-24T00:04:22.841Z,2.60
2018-01-24T00:06:50.310Z,2.43
2018-01-24T00:09:17.796Z,2.60
2018-01-24T00:11:45.261Z,2.10
2018-01-24T00:14:12.750Z,2.57
2018-01-24T00:16:40.985Z,2.43
2018-01-24T00:19:08.445Z,2.40
2018-01-24T00:21:35.914Z,2.53
2018-01-24T00:24:03.383Z,1.90
2018-01-24T00:26:30.859Z,1.87
2018-01-24T00:28:58.323Z,1.73
2018-01-24T00:31:26.575Z,2.30
2018-01-24T00:33:54.040Z,1.70
2018-01-24T00:36:21.522Z,2.20
2018-01-24T00:38:49.750Z,2.30
2018-01-24T00:41:17.260Z,2.20
2018-01-24T00:43:45.134Z,2.50
2018-01-24T00:46:12.617Z,2.30
2018-01-24T00:48:40.083Z,2.53
2018-01-24T00:51:07.567Z,2.37
2018-01-24T00:53:35.039Z,2.40
2018-01-24T00:56:02.524Z,2.30
2018-01-24T00:58:29.999Z,2.33
2018-01-24T01:00:57.466Z,2.27
2018-01-24T01:03:24.931Z,2.10
2018-01-24T01:05:52.416Z,2.43
2018-01-24T01:08:19.892Z,2.20
2018-01-24T01:10:48.132Z,2.67
2018-01-24T01:13:15.608Z,2.10
2018-01-24T01:15:43.086Z,3.10
2018-01-24T01:18:11.320Z,2.00
2018-01-24T01:20:38.790Z,2.07
2018-01-24T01:23:06.259Z,2.80
2018-01-24T01:25:33.730Z,2.70
2018-01-24T01:28:01.190Z,2.50
2018-01-24T01:30:29.443Z,2.37
2018-01-24T01:32:56.893Z,2.23
2018-01-24T01:35:24.364Z,1.73
2018-01-24T01:37:51.865Z,2.70
2018-01-24T01:40:19.331Z,2.50
2018-01-24T01:42:46.803Z,2.40
2018-01-24T01:45:14.262Z,2.10
2018-01-24T01:47:41.755Z,1.97
2018-01-24T01:50:09.216Z,1.63
2018-01-24T01:52:36.691Z,1.67
2018-01-24T01:55:04.943Z,2.10
2018-01-24T01:57:32.409Z,1.83
2018-01-24T01:59:59.879Z,1.60
2018-01-24T02:02:27.346Z,1.63
2018-01-24T02:04:55.570Z,1.73
2018-01-24T02:07:23.051Z,2.20
2018-01-24T02:09:50.561Z,2.00
2018-01-24T02:12:17.992Z,2.13
2018-01-24T02:14:45.467Z,2.30
2018-01-24T02:17:13.719Z,2.07
2018-01-24T02:19:41.177Z,2.90
2018-01-24T02:22:08.643Z,2.20
2018-01-24T02:24:36.879Z,2.40
2018-01-24T02:27:04.402Z,3.10
2018-01-24T02:29:31.842Z,2.63
2018-01-24T02:32:00.086Z,2.60
2018-01-24T02:34:27.559Z,3.00
2018-01-24T02:36:55.029Z,2.50
2018-01-24T02:39:23.271Z,2.43
2018-01-24T02:41:50.749Z,2.20
2018-01-24T02:44:18.219Z,2.37
2018-01-24T02:46:45.704Z,3.07
2018-01-24T02:49:13.934Z,3.00
2018-01-24T02:51:41.394Z,2.13
2018-01-24T02:54:08.861Z,3.37
2018-01-24T02:56:38.078Z,1.80
2018-01-24T02:59:06.298Z,2.40
2018-01-24T03:01:34.424Z,1.80
2018-01-24T03:04:02.695Z,2.03
2018-01-24T03:06:30.179Z,1.60
2018-01-24T03:08:58.397Z,2.57
2018-01-24T03:11:25.875Z,2.30
2018-01-24T03:13:53.333Z,2.00
2018-01-24T03:16:20.806Z,2.17
2018-01-24T03:18:48.280Z,3.60
2018-01-24T03:21:16.537Z,2.57
2018-01-24T03:23:44.001Z,2.50
2018-01-24T03:26:11.462Z,2.07
2018-01-24T03:28:39.698Z,2.03
2018-01-24T03:31:07.169Z,2.60
2018-01-24T03:33:34.650Z,2.43
2018-01-24T03:36:02.116Z,2.47
2018-01-24T03:38:30.360Z,3.60
2018-01-24T03:40:57.818Z,3.17
2018-01-24T03:43:25.299Z,2.13
2018-01-24T03:45:52.754Z,2.60
2018-01-24T03:48:20.230Z,2.90
2018-01-24T03:50:48.458Z,2.53
2018-01-24T03:53:15.942Z,2.07
2018-01-24T03:55:43.417Z,2.23
2018-01-24T03:58:11.655Z,2.63
2018-01-24T04:00:39.895Z,1.60
2018-01-24T04:03:07.368Z,1.80
2018-01-24T04:05:35.132Z,2.57
2018-01-24T04:08:02.603Z,2.27
2018-01-24T04:10:30.067Z,2.40
2018-01-24T04:12:57.544Z,2.07
2018-01-24T04:15:25.027Z,1.70
2018-01-24T04:17:53.271Z,2.00
2018-01-24T04:20:20.743Z,2.03
2018-01-24T04:22:48.225Z,2.10
2018-01-24T04:25:16.453Z,1.67
2018-01-24T04:27:44.696Z,1.50
2018-01-24T04:30:12.159Z,2.27
2018-01-24T04:32:39.631Z,1.50
2018-01-24T04:35:07.102Z,1.50
2018-01-24T04:37:34.630Z,2.00
2018-01-24T04:40:02.120Z,1.53
2018-01-24T04:42:29.711Z,1.57
2018-01-24T04:44:57.185Z,1.40
2018-01-24T04:47:24.711Z,1.20
2018-01-24T04:49:52.999Z,1.50
2018-01-24T04:52:20.479Z,1.67
2018-01-24T04:54:48.710Z,1.70
2018-01-24T04:57:16.198Z,2.23
2018-01-24T04:59:43.666Z,1.93
2018-01-24T05:02:11.140Z,1.57
2018-01-24T05:04:39.378Z,1.67
2018-01-24T05:07:06.858Z,1.50
2018-01-24T05:09:34.331Z,1.77
2018-01-24T05:12:02.570Z,1.90
2018-01-24T05:14:30.047Z,1.47
2018-01-24T05:16:57.524Z,2.37
2018-01-24T05:19:25.753Z,2.57
2018-01-24T05:21:53.756Z,1.60
2018-01-24T05:24:21.231Z,1.23
2018-01-24T05:26:50.127Z,1.30
2018-01-24T05:29:18.367Z,1.00
2018-01-24T05:31:45.831Z,1.10
2018-01-24T05:34:13.307Z,1.83
2018-01-24T05:36:41.541Z,1.37
2018-01-24T05:39:09.016Z,1.37
2018-01-24T05:41:36.479Z,1.13
2018-01-24T05:44:03.963Z,1.27
2018-01-24T05:46:32.204Z,1.40
2018-01-24T05:48:59.674Z,1.70
2018-01-24T05:51:27.151Z,1.20
2018-01-24T05:53:55.397Z,1.43
2018-01-24T05:56:22.871Z,1.17
2018-01-24T05:58:50.347Z,1.40
2018-01-24T06:01:18.580Z,1.10
2018-01-24T06:03:46.052Z,1.43
2018-01-24T06:06:13.518Z,1.60
2018-01-24T06:08:40.999Z,1.37
2018-01-24T06:11:09.235Z,1.27
2018-01-24T06:13:36.708Z,1.60
2018-01-24T06:16:04.170Z,1.40
2018-01-24T06:18:31.650Z,1.90
2018-01-24T06:20:59.880Z,1.67
2018-01-24T06:23:27.358Z,1.77
2018-01-24T06:25:54.818Z,2.17
2018-01-24T06:28:22.297Z,2.17
2018-01-24T06:30:50.827Z,2.00
2018-01-24T06:33:18.582Z,2.47
2018-01-24T06:35:46.051Z,1.87
2018-01-24T06:38:13.531Z,1.40
2018-01-24T06:40:40.990Z,1.70
2018-01-24T06:43:08.468Z,1.30
2018-01-24T06:45:35.938Z,2.23
2018-01-24T06:48:04.190Z,1.50
2018-01-24T06:50:31.650Z,1.90
2018-01-24T06:52:59.126Z,1.60
2018-01-24T06:55:27.358Z,1.60
2018-01-24T06:57:54.840Z,2.00
2018-01-24T07:00:22.337Z,2.03
2018-01-24T07:02:49.821Z,2.50
2018-01-24T07:05:17.290Z,1.73
2018-01-24T07:07:44.774Z,2.13
2018-01-24T07:10:12.227Z,2.60
2018-01-24T07:12:51.633Z,2.10
2018-01-24T07:15:19.092Z,1.93
2018-01-24T07:17:46.557Z,2.10
2018-01-24T07:20:14.030Z,2.03
2018-01-24T07:22:41.507Z,2.20
2018-01-24T07:25:08.974Z,2.20
2018-01-24T07:27:36.436Z,2.07
2018-01-24T07:30:03.917Z,2.93
2018-01-24T07:32:32.152Z,2.60
2018-01-24T07:34:59.629Z,2.60
2018-01-24T07:37:27.866Z,2.50
2018-01-24T07:39:55.354Z,2.50
2018-01-24T07:42:22.822Z,2.80
2018-01-24T07:44:50.307Z,2.30
2018-01-24T07:47:17.774Z,2.13
2018-01-24T07:49:45.251Z,2.43
2018-01-24T07:52:12.727Z,2.20
2018-01-24T07:54:40.963Z,2.37
2018-01-24T07:57:08.430Z,2.80
2018-01-24T07:59:35.927Z,3.07
2018-01-24T08:02:03.398Z,3.33
2018-01-24T08:04:30.875Z,2.43
2018-01-24T08:06:59.111Z,2.13
2018-01-24T08:09:26.591Z,1.73
2018-01-24T08:11:54.069Z,2.10
2018-01-24T08:14:21.539Z,1.80
2018-01-24T08:16:49.770Z,1.50
2018-01-24T08:19:17.256Z,1.43
2018-01-24T08:21:45.495Z,1.27
2018-01-24T08:24:12.976Z,1.70
2018-01-24T08:26:40.434Z,1.80
2018-01-24T08:29:07.915Z,1.47
2018-01-24T08:31:39.171Z,2.07
2018-01-24T08:34:07.427Z,2.60
2018-01-24T08:36:34.898Z,2.77
2018-01-24T08:39:03.137Z,2.70
2018-01-24T08:41:30.602Z,2.73
2018-01-24T08:43:58.080Z,3.37
2018-01-24T08:46:25.558Z,2.63
2018-01-24T08:48:53.799Z,2.90
2018-01-24T08:51:21.363Z,2.60
2018-01-24T08:53:48.895Z,2.73
2018-01-24T08:56:17.084Z,3.13
2018-01-24T08:58:44.564Z,3.57
2018-01-24T09:01:29.575Z,3.57
2018-01-24T09:04:14.724Z,3.07
2018-01-24T09:07:00.665Z,3.40
2018-01-24T09:09:45.851Z,2.37
2018-01-24T09:12:31.094Z,2.90
2018-01-24T09:15:16.247Z,2.37
2018-01-24T09:18:01.419Z,2.40
2018-01-24T09:20:47.008Z,2.23
2018-01-24T09:23:39.080Z,2.00
2018-01-24T09:26:06.561Z,3.13
2018-01-24T09:28:34.031Z,2.10
2018-01-24T09:31:01.515Z,2.00
2018-01-24T09:33:29.008Z,2.13
2018-01-24T09:35:56.491Z,2.40
2018-01-24T09:38:23.964Z,2.20
2018-01-24T09:40:51.442Z,1.87
2018-01-24T09:43:19.680Z,2.00
2018-01-24T09:45:47.152Z,1.90
2018-01-24T09:48:14.619Z,1.40
2018-01-24T09:50:42.188Z,2.20
2018-01-24T09:53:10.420Z,1.60
2018-01-24T09:55:37.901Z,1.30
2018-01-24T09:58:05.365Z,1.60
2018-01-24T10:00:32.841Z,1.47
2018-01-24T10:03:01.073Z,1.50
2018-01-24T10:05:28.560Z,1.33
2018-01-24T10:07:56.039Z,1.80
2018-01-24T10:10:24.277Z,1.43
2018-01-24T10:12:51.758Z,1.20
2018-01-24T10:15:19.229Z,2.17
2018-01-24T10:17:47.467Z,1.77
2018-01-24T10:20:15.699Z,1.97
2018-01-24T10:22:43.174Z,1.47
2018-01-24T10:25:10.652Z,1.20
2018-01-24T10:27:38.131Z,1.43
2018-01-24T10:30:05.603Z,1.20
2018-01-24T10:32:33.079Z,1.33
2018-01-24T10:35:01.322Z,2.10
2018-01-24T10:37:28.803Z,1.50
2018-01-24T10:39:56.275Z,1.60
2018-01-24T10:42:24.523Z,1.50
2018-01-24T10:44:51.999Z,1.20
2018-01-24T10:47:19.497Z,1.47
2018-01-24T10:49:46.968Z,1.00
2018-01-24T10:52:14.442Z,0.80
2018-01-24T10:54:41.919Z,0.90
2018-01-24T10:57:09.401Z,0.80
2018-01-24T10:59:37.631Z,1.10
2018-01-24T11:02:05.111Z,0.80
2018-01-24T11:04:32.579Z,1.00
2018-01-24T11:07:00.864Z,0.73
2018-01-24T11:09:29.127Z,0.80
2018-01-24T11:11:56.595Z,0.80
2018-01-24T11:14:24.848Z,0.80
2018-01-24T11:16:52.327Z,0.97
2018-01-24T11:19:19.806Z,0.90
2018-01-24T11:21:48.043Z,1.00
2018-01-24T11:24:15.519Z,0.97
2018-01-24T11:26:43.758Z,0.90
2018-01-24T11:29:12.165Z,0.90
2018-01-24T11:31:39.638Z,0.73
2018-01-24T11:34:07.883Z,0.90
2018-01-24T11:36:36.130Z,1.03
2018-01-24T11:39:03.610Z,1.27
2018-01-24T11:41:31.074Z,0.80
2018-01-24T11:43:58.549Z,1.23
2018-01-24T11:46:26.025Z,0.77
2018-01-24T11:48:53.490Z,0.70
2018-01-24T11:51:21.723Z,1.17
2018-01-24T11:53:49.203Z,0.70
2018-01-24T11:56:16.679Z,0.97
2018-01-24T11:58:44.916Z,0.93
2018-01-24T12:01:12.402Z,1.20
2018-01-24T12:03:39.868Z,0.80
2018-01-24T12:06:07.350Z,1.00
2018-01-24T12:08:34.826Z,1.10
2018-01-24T12:11:02.294Z,1.00
2018-01-24T12:13:29.768Z,0.80
2018-01-24T12:15:57.251Z,0.90
2018-01-24T12:18:25.244Z,0.90
2018-01-24T12:20:53.556Z,1.00
2018-01-24T12:23:21.029Z,0.90
2018-01-24T12:25:48.517Z,0.90
2018-01-24T12:28:15.975Z,1.00
2018-01-24T12:30:43.449Z,0.67
2018-01-24T12:33:11.679Z,1.27
2018-01-24T12:35:39.172Z,1.00
2018-01-24T12:38:06.642Z,0.80
2018-01-24T12:40:34.904Z,0.80
2018-01-24T12:43:02.371Z,0.67
2018-01-24T12:45:30.594Z,0.93
2018-01-24T12:47:58.132Z,0.77
2018-01-24T12:50:25.615Z,0.80
2018-01-24T12:52:53.111Z,1.00
2018-01-24T12:55:20.580Z,1.10
2018-01-24T12:57:48.054Z,0.60
2018-01-24T13:00:16.299Z,1.13
2018-01-24T13:02:43.776Z,1.03
2018-01-24T13:05:11.239Z,1.33
2018-01-24T13:07:39.486Z,1.03
2018-01-24T13:10:06.983Z,1.33
2018-01-24T13:12:35.210Z,1.07
2018-01-24T13:15:02.687Z,1.03
2018-01-24T13:17:30.195Z,1.10
2018-01-24T13:19:58.400Z,0.97
2018-01-24T13:22:25.870Z,0.90
2018-01-24T13:24:53.345Z,0.93
2018-01-24T13:27:20.822Z,1.20
2018-01-24T13:29:49.050Z,0.97
2018-01-24T13:32:16.523Z,0.80
2018-01-24T13:34:45.482Z,1.10
2018-01-24T13:37:12.975Z,0.93
2018-01-24T13:39:40.445Z,1.30
2018-01-24T13:42:07.923Z,1.03
2018-01-24T13:44:36.203Z,1.40
2018-01-24T13:47:03.639Z,0.70
2018-01-24T13:49:31.103Z,1.10
2018-01-24T13:52:04.515Z,1.10
2018-01-24T13:54:32.743Z,1.13
2018-01-24T13:57:00.228Z,1.20
2018-01-24T13:59:27.698Z,1.00
2018-01-24T14:01:55.951Z,1.03
2018-01-24T14:04:23.432Z,1.30
2018-01-24T14:06:50.899Z,1.23
2018-01-24T14:09:19.139Z,1.20
2018-01-24T14:11:46.603Z,0.97
2018-01-24T14:14:14.093Z,1.17
2018-01-24T14:16:42.318Z,0.93
2018-01-24T14:19:09.794Z,0.70
2018-01-24T14:21:37.262Z,1.20
2018-01-24T14:24:04.758Z,1.40
2018-01-24T14:26:32.992Z,1.23
2018-01-24T14:29:00.470Z,1.13
2018-01-24T14:31:27.941Z,0.97
2018-01-24T14:33:56.182Z,1.00
2018-01-24T14:36:23.655Z,0.90
2018-01-24T14:38:51.134Z,0.97
2018-01-24T14:41:19.371Z,1.30
2018-01-24T14:43:46.850Z,0.90
2018-01-24T14:46:14.315Z,1.10
2018-01-24T14:48:41.787Z,0.80
2018-01-24T14:51:10.024Z,1.00
2018-01-24T14:53:37.498Z,0.97
2018-01-24T14:56:04.969Z,1.10
2018-01-24T14:58:33.210Z,1.07
2018-01-24T15:01:01.087Z,1.23
2018-01-24T15:03:28.572Z,1.00
2018-01-24T15:05:56.086Z,1.20
2018-01-24T15:08:23.566Z,1.10
2018-01-24T15:10:51.036Z,1.00
2018-01-24T15:13:18.523Z,1.33
2018-01-24T15:15:46.750Z,1.50
2018-01-24T15:18:14.225Z,1.20
2018-01-24T15:20:41.710Z,1.13
2018-01-24T15:23:09.958Z,1.20
2018-01-24T15:25:37.438Z,1.20
2018-01-24T15:28:05.685Z,0.90
2018-01-24T15:30:33.156Z,1.40
2018-01-24T15:33:00.644Z,1.43
2018-01-24T15:35:28.866Z,1.30
2018-01-24T15:37:56.349Z,1.27
2018-01-24T15:40:23.823Z,1.53
2018-01-24T15:42:51.310Z,1.33
2018-01-24T15:45:18.777Z,1.33
2018-01-24T15:47:46.248Z,1.10
2018-01-24T15:50:13.738Z,1.67
2018-01-24T15:52:41.213Z,1.40
2018-01-24T15:55:08.686Z,1.60
2018-01-24T15:57:36.918Z,1.60
2018-01-24T16:00:05.519Z,1.30
2018-01-24T16:02:32.987Z,1.10
2018-01-24T16:05:00.466Z,1.30
2018-01-24T16:07:29.276Z,1.10
2018-01-24T16:09:56.759Z,1.20
2018-01-24T16:12:24.232Z,1.13
2018-01-24T16:14:51.719Z,1.10
2018-01-24T16:17:19.956Z,1.10
2018-01-24T16:19:47.432Z,1.30
2018-01-24T16:22:14.908Z,1.50
2018-01-24T16:24:42.371Z,1.57
2018-01-24T16:27:10.609Z,1.30
2018-01-24T16:29:38.087Z,1.10
2018-01-24T16:32:05.555Z,1.20
2018-01-24T16:34:33.642Z,1.10
2018-01-24T16:37:01.198Z,1.00
2018-01-24T16:39:29.456Z,1.33
2018-01-24T16:41:56.918Z,1.30
2018-01-24T16:44:24.402Z,1.20
2018-01-24T16:46:52.631Z,1.20
2018-01-24T16:49:20.115Z,1.13
2018-01-24T16:51:47.577Z,1.40
2018-01-24T16:54:15.055Z,1.13
2018-01-24T16:56:43.300Z,1.30
2018-01-24T16:59:10.770Z,1.10
2018-01-24T17:01:38.239Z,0.83
2018-01-24T17:04:06.484Z,1.17
2018-01-24T17:06:33.954Z,1.27
2018-01-24T17:09:01.434Z,1.10
2018-01-24T17:11:29.675Z,1.10
2018-01-24T17:13:57.164Z,1.10
2018-01-24T17:16:24.638Z,1.67
2018-01-24T17:18:52.123Z,1.27
2018-01-24T17:21:19.587Z,1.30
2018-01-24T17:23:47.070Z,1.33
2018-01-24T17:26:14.543Z,1.30
2018-01-24T17:28:42.027Z,1.43
2018-01-24T17:31:10.267Z,1.30
2018-01-24T17:33:37.796Z,1.20
2018-01-24T17:36:05.273Z,1.20
2018-01-24T17:38:32.782Z,1.50
2018-01-24T17:41:01.019Z,1.50
2018-01-24T17:43:28.498Z,1.20
2018-01-24T17:45:55.967Z,1.87
2018-01-24T17:48:24.210Z,1.37
2018-01-24T17:50:51.685Z,1.43
2018-01-24T17:53:19.154Z,1.23
2018-01-24T17:55:47.395Z,1.20
2018-01-24T17:58:14.868Z,1.30
2018-01-24T18:00:42.343Z,1.20
2018-01-24T18:03:09.815Z,1.10
2018-01-24T18:05:38.075Z,1.40
2018-01-24T18:08:05.548Z,0.90
2018-01-24T18:10:33.781Z,1.77
2018-01-24T18:13:01.263Z,1.13
2018-01-24T18:15:28.745Z,0.93
2018-01-24T18:17:56.986Z,1.50
2018-01-24T18:20:24.454Z,1.23
2018-01-24T18:22:51.927Z,1.23
2018-01-24T18:25:20.177Z,1.17
2018-01-24T18:27:47.640Z,1.20
2018-01-24T18:30:18.608Z,1.63
2018-01-24T18:32:46.855Z,1.27
2018-01-24T18:35:14.345Z,1.33
2018-01-24T18:37:42.584Z,1.00
2018-01-24T18:40:10.067Z,1.23
2018-01-24T18:42:37.542Z,1.03
2018-01-24T18:45:05.786Z,1.10
2018-01-24T18:47:33.252Z,1.17
2018-01-24T18:50:00.731Z,1.20
2018-01-24T18:52:28.208Z,0.90
2018-01-24T18:54:55.695Z,0.90
2018-01-24T18:57:23.174Z,1.80
2018-01-24T18:59:50.644Z,1.37
2018-01-24T19:02:18.119Z,1.43
2018-01-24T19:04:46.368Z,1.30
2018-01-24T19:07:13.854Z,1.30
2018-01-24T19:09:41.326Z,1.73
2018-01-24T19:12:09.581Z,1.30
2018-01-24T19:14:37.050Z,1.30
2018-01-24T19:17:05.287Z,1.70
2018-01-24T19:19:32.773Z,1.50
2018-01-24T19:22:00.274Z,1.40
2018-01-24T19:24:28.487Z,1.23
2018-01-24T19:26:55.957Z,1.10
2018-01-24T19:29:23.433Z,1.10
2018-01-24T19:31:51.661Z,1.23
2018-01-24T19:34:19.154Z,1.20
2018-01-24T19:36:46.614Z,1.60
2018-01-24T19:39:14.079Z,0.83
2018-01-24T19:41:42.324Z,1.30
2018-01-24T19:44:09.796Z,1.00
2018-01-24T19:46:37.271Z,1.13
2018-01-24T19:49:04.736Z,1.40
2018-01-24T19:51:32.974Z,1.20
2018-01-24T19:54:01.220Z,1.00
2018-01-24T19:56:28.703Z,1.13
2018-01-24T19:58:56.210Z,1.40
2018-01-24T20:01:24.457Z,1.10
2018-01-24T20:03:51.910Z,1.10
2018-01-24T20:06:20.176Z,1.03
2018-01-24T20:08:47.670Z,1.17
2018-01-24T20:11:15.159Z,1.00
2018-01-24T20:13:42.628Z,1.00
2018-01-24T20:16:10.109Z,1.27
2018-01-24T20:18:37.575Z,1.20
2018-01-24T20:21:05.055Z,0.80
2018-01-24T20:23:32.522Z,1.80
2018-01-24T20:26:00.024Z,1.03
2018-01-24T20:28:27.508Z,1.10
2018-01-24T20:30:54.991Z,1.33
2018-01-24T20:33:22.472Z,1.27
2018-01-24T20:35:50.707Z,1.23
2018-01-24T20:38:18.183Z,1.53
2018-01-24T20:40:45.673Z,1.50
2018-01-24T20:43:13.903Z,0.87
2018-01-24T20:45:41.385Z,1.13
2018-01-24T20:48:08.853Z,1.67
2018-01-24T20:50:37.099Z,1.30
2018-01-24T20:53:04.587Z,1.37
2018-01-24T20:55:32.838Z,1.53
2018-01-24T20:58:00.333Z,1.40
2018-01-24T21:00:27.806Z,1.70
2018-01-24T21:02:55.276Z,1.23
2018-01-24T21:05:22.750Z,1.40
2018-01-24T21:07:50.220Z,1.30
2018-01-24T21:10:17.704Z,1.70
2018-01-24T21:12:45.162Z,1.73
2018-01-24T21:15:12.630Z,1.43
2018-01-24T21:17:40.875Z,1.37
2018-01-24T21:20:08.355Z,1.50
2018-01-24T21:22:35.821Z,1.10
2018-01-24T21:25:04.075Z,1.40
2018-01-24T21:27:31.547Z,1.10
2018-01-24T21:30:10.982Z,1.53
2018-01-24T21:32:50.303Z,1.50
2018-01-24T21:35:29.719Z,1.50
2018-01-24T21:37:57.198Z,1.97
2018-01-24T21:40:25.462Z,2.13
2018-01-24T21:42:52.942Z,1.90
2018-01-24T21:45:21.008Z,1.70
2018-01-24T21:47:49.036Z,1.40
2018-01-24T21:50:16.888Z,1.93
2018-01-24T21:52:45.172Z,1.37
2018-01-24T21:55:12.599Z,1.33
2018-01-24T21:57:40.073Z,1.90
2018-01-24T22:00:08.306Z,1.50
2018-01-24T22:02:35.792Z,1.50
2018-01-24T22:05:03.265Z,1.40
2018-01-24T22:07:31.524Z,1.50
2018-01-24T22:09:58.995Z,1.50
2018-01-24T22:12:26.467Z,1.50
2018-01-24T22:14:54.707Z,1.43
2018-01-24T22:17:22.184Z,1.57
2018-01-24T22:19:49.651Z,1.50
2018-01-24T22:22:17.900Z,1.43
2018-01-24T22:24:45.368Z,1.47
2018-01-24T22:27:12.846Z,1.57
2018-01-24T22:29:41.091Z,2.00
2018-01-24T22:32:08.572Z,1.60
2018-01-24T22:34:36.040Z,1.20
2018-01-24T22:37:04.307Z,1.40
2018-01-24T22:39:32.553Z,1.50
2018-01-24T22:42:00.032Z,1.47
2018-01-24T22:44:27.491Z,1.37
2018-01-24T22:46:54.964Z,1.70
2018-01-24T22:49:23.203Z,1.20
2018-01-24T22:51:50.673Z,1.60
2018-01-24T22:54:18.151Z,2.00
2018-01-24T22:56:45.633Z,1.50
2018-01-24T22:59:15.723Z,2.43
2018-01-24T23:01:43.208Z,1.63
2018-01-24T23:04:11.444Z,1.37
2018-01-24T23:06:38.927Z,1.50
2018-01-24T23:09:09.074Z,1.90
2018-01-24T23:11:36.554Z,1.93
2018-01-24T23:14:04.029Z,1.90
2018-01-24T23:16:31.493Z,2.00
2018-01-24T23:18:58.954Z,1.50
2018-01-24T23:21:26.431Z,1.63
2018-01-24T23:23:53.897Z,1.93
2018-01-24T23:26:21.379Z,1.90
2018-01-24T23:28:48.848Z,1.50
2018-01-24T23:31:16.327Z,1.77
2018-01-24T23:33:43.796Z,1.93
2018-01-24T23:36:11.269Z,1.50
2018-01-24T23:38:38.746Z,1.80
2018-01-24T23:41:06.217Z,1.90
2018-01-24T23:43:33.694Z,1.70
2018-01-24T23:46:01.213Z,1.70
2018-01-24T23:48:28.670Z,1.50
2018-01-24T23:50:56.142Z,1.63
2018-01-24T23:53:24.384Z,1.70
2018-01-24T23:55:51.850Z,1.90
2018-01-24T23:58:19.338Z,1.70
